Terminal Aerodrome Forecast
Issued by NWS Greer, SC

Home | Current Version | Previous Version | Text Only | Print | Product List | Glossary On
Versions: 1 2 3 4 5 6 7 8 9 10 11 12 13 14 15 16 17 18 19 20 21 22 23 24 25 26 27
000
FTUS42 KGSP 060539
TAFGSP
TAF
KGSP 060539Z 0606/0706 23004KT P6SM SCT090
     FM061400 24006KT P6SM SCT040
     FM061900 24007KT P6SM SCT050 BKN080 PROB30 0619/0623 4SM -TSRA
      BKN040CB
     FM070200 23003KT P6SM FEW080=

USA.gov is the U.S. government's official web portal to all federal, state and local government web resources and services.